Palmyra, Arkansas
Current Conditions -  °F | °C
As of 10:19 AM on Friday 21 Nov 2014 (Local Time) from KPBF Reporting Station
Haze Haze  
Wind Chill: 50°   Ceiling: 400
Heat Index: 50°   Visibility: 5mi
Dew Point: 48°   Wind: 5mph
Humidity: 93%   Direction: 30°NNE
Pressure: 30.3"   Gusts: NA
Location:  33.924°N, 91.8685°W
Report Text: KPBF 211619Z AUTO 03004KT 5SM BR BKN004 OVC038 10/09 A3030 RMK AO2 RAE18 P0001 T01000089
Loading
Personal Weather Stations






























Interactive Weather Map New forecast layout! Learn more

10-Day Weather Forecast

Advertisements
Track Severe Weather on mobile